West Liberty, Iowa
Current Conditions -  °F | °C
As of 11:35 AM on Friday 21 Nov 2014 (Local Time) from KMUT Reporting Station
Clear Clear  
Wind Chill: 22°   Ceiling: Unl
Heat Index: 30°   Visibility: 10mi
Dew Point:   Wind: 9mph
Humidity: 40%   Direction: 150°SSE
Pressure: 30.37"   Gusts: NA
Location:  41.57°N, 91.26°W
Report Text: KMUT 211735Z AUTO 15008KT 10SM CLR M01/M13 A3037 RMK AO2
Loading
Personal Weather Stations






























Interactive Weather Map New forecast layout! Learn more

10-Day Weather Forecast

Advertisements
Track Severe Weather on mobile